sensor_id;sensor_type;location;lat;lon;timestamp;pressure;altitude;pressure_sealevel;temperature;humidity
9460;BME280;4768;42.664;23.240;2022-08-16T00:00:42;45831.19;;;18.20;100.00
9460;BME280;4768;42.664;23.240;2022-08-16T00:03:11;45465.03;;;17.96;100.00
9460;BME280;4768;42.664;23.240;2022-08-16T00:05:38;49675.03;;;17.85;100.00
9460;BME280;4768;42.664;23.240;2022-08-16T00:08:05;52835.09;;;17.76;100.00
9460;BME280;4768;42.664;23.240;2022-08-16T00:10:32;57051.59;;;17.65;100.00
9460;BME280;4768;42.664;23.240;2022-08-16T00:13:00;61306.91;;;17.65;100.00
9460;BME280;4768;42.664;23.240;2022-08-16T00:15:32;65170.28;;;17.57;100.00
9460;BME280;4768;42.664;23.240;2022-08-16T00:17:59;68699.09;;;17.61;100.00
9460;BME280;4768;42.664;23.240;2022-08-16T00:20:27;71241.00;;;17.70;100.00
9460;BME280;4768;42.664;23.240;2022-08-16T00:22:54;74438.91;;;17.81;100.00
9460;BME280;4768;42.664;23.240;2022-08-16T00:25:22;77155.16;;;17.99;100.00
9460;BME280;4768;42.664;23.240;2022-08-16T00:27:49;76678.72;;;18.11;100.00
9460;BME280;4768;42.664;23.240;2022-08-16T00:30:18;77329.19;;;18.08;100.00
9460;BME280;4768;42.664;23.240;2022-08-16T00:32:49;78415.53;;;18.11;100.00
9460;BME280;4768;42.664;23.240;2022-08-16T00:35:23;76549.09;;;18.09;100.00
9460;BME280;4768;42.664;23.240;2022-08-16T00:37:51;75258.09;;;18.29;100.00
9460;BME280;4768;42.664;23.240;2022-08-16T00:40:22;73660.44;;;18.37;100.00
9460;BME280;4768;42.664;23.240;2022-08-16T00:42:50;72554.06;;;18.30;100.00
9460;BME280;4768;42.664;23.240;2022-08-16T00:45:26;66377.47;;;18.28;100.00
9460;BME280;4768;42.664;23.240;2022-08-16T00:47:53;66573.06;;;18.25;100.00
9460;BME280;4768;42.664;23.240;2022-08-16T00:50:23;69837.16;;;18.11;100.00
9460;BME280;4768;42.664;23.240;2022-08-16T00:52:52;82525.72;;;18.02;100.00
9460;BME280;4768;42.664;23.240;2022-08-16T00:55:20;93988.81;;;17.97;100.00
9460;BME280;4768;42.664;23.240;2022-08-16T00:57:50;100848.63;;;17.79;100.00
9460;BME280;4768;42.664;23.240;2022-08-16T01:00:18;106352.09;;;17.83;100.00
9460;BME280;4768;42.664;23.240;2022-08-16T01:02:45;110964.88;;;17.84;100.00
9460;BME280;4768;42.664;23.240;2022-08-16T01:05:13;116263.16;;;17.80;100.00
9460;BME280;4768;42.664;23.240;2022-08-16T01:07:41;119258.28;;;17.63;100.00
9460;BME280;4768;42.664;23.240;2022-08-16T01:10:11;121051.91;;;17.69;100.00
9460;BME280;4768;42.664;23.240;2022-08-16T01:12:38;124394.66;;;17.64;100.00
9460;BME280;4768;42.664;23.240;2022-08-16T01:15:05;134858.25;;;17.65;100.00
9460;BME280;4768;42.664;23.240;2022-08-16T01:17:33;138584.00;;;17.65;100.00
9460;BME280;4768;42.664;23.240;2022-08-16T01:20:04;140892.56;;;17.69;100.00
9460;BME280;4768;42.664;23.240;2022-08-16T01:22:38;142777.25;;;17.77;100.00
9460;BME280;4768;42.664;23.240;2022-08-16T01:25:14;145013.84;;;17.70;100.00
9460;BME280;4768;42.664;23.240;2022-08-16T01:27:47;146226.81;;;17.67;100.00
9460;BME280;4768;42.664;23.240;2022-08-16T01:30:18;146561.16;;;17.65;100.00
9460;BME280;4768;42.664;23.240;2022-08-16T01:32:45;146002.03;;;17.70;100.00
9460;BME280;4768;42.664;23.240;2022-08-16T01:35:17;146612.00;;;17.63;100.00
9460;BME280;4768;42.664;23.240;2022-08-16T01:37:48;147706.56;;;17.55;100.00
9460;BME280;4768;42.664;23.240;2022-08-16T01:40:19;149266.03;;;17.57;100.00
9460;BME280;4768;42.664;23.240;2022-08-16T01:42:47;150831.50;;;17.61;100.00
9460;BME280;4768;42.664;23.240;2022-08-16T01:45:14;150835.84;;;17.58;100.00
9460;BME280;4768;42.664;23.240;2022-08-16T01:47:43;151026.88;;;17.57;100.00
9460;BME280;4768;42.664;23.240;2022-08-16T01:50:12;151442.31;;;17.55;100.00
9460;BME280;4768;42.664;23.240;2022-08-16T01:52:40;151771.78;;;17.66;100.00
9460;BME280;4768;42.664;23.240;2022-08-16T01:55:08;151879.44;;;17.75;100.00
9460;BME280;4768;42.664;23.240;2022-08-16T01:57:37;152530.31;;;17.83;100.00
9460;BME280;4768;42.664;23.240;2022-08-16T02:00:06;151546.78;;;17.81;100.00
9460;BME280;4768;42.664;23.240;2022-08-16T02:02:34;150076.06;;;17.79;100.00
9460;BME280;4768;42.664;23.240;2022-08-16T02:05:01;148805.22;;;17.82;100.00
9460;BME280;4768;42.664;23.240;2022-08-16T02:07:27;148690.94;;;17.79;100.00
9460;BME280;4768;42.664;23.240;2022-08-16T02:09:54;148580.81;;;17.81;100.00
9460;BME280;4768;42.664;23.240;2022-08-16T02:12:21;147662.34;;;17.79;100.00
9460;BME280;4768;42.664;23.240;2022-08-16T02:14:49;147095.00;;;17.73;100.00
9460;BME280;4768;42.664;23.240;2022-08-16T02:17:16;147830.09;;;17.74;100.00
9460;BME280;4768;42.664;23.240;2022-08-16T02:19:44;149874.53;;;17.75;100.00
9460;BME280;4768;42.664;23.240;2022-08-16T02:22:16;150493.03;;;17.73;100.00
9460;BME280;4768;42.664;23.240;2022-08-16T02:24:44;151831.84;;;17.74;100.00
9460;BME280;4768;42.664;23.240;2022-08-16T02:27:11;152566.38;;;17.70;100.00
9460;BME280;4768;42.664;23.240;2022-08-16T02:29:38;153050.53;;;17.63;100.00
9460;BME280;4768;42.664;23.240;2022-08-16T02:32:08;152968.94;;;17.62;100.00
9460;BME280;4768;42.664;23.240;2022-08-16T02:34:36;152301.41;;;17.62;100.00
9460;BME280;4768;42.664;23.240;2022-08-16T02:37:03;152138.78;;;17.65;100.00
9460;BME280;4768;42.664;23.240;2022-08-16T02:39:29;151129.19;;;17.65;100.00
9460;BME280;4768;42.664;23.240;2022-08-16T02:41:56;150066.44;;;17.78;100.00
9460;BME280;4768;42.664;23.240;2022-08-16T02:44:24;149098.56;;;17.80;100.00
9460;BME280;4768;42.664;23.240;2022-08-16T02:46:50;147235.25;;;17.87;100.00
9460;BME280;4768;42.664;23.240;2022-08-16T02:49:19;144377.13;;;17.85;100.00
9460;BME280;4768;42.664;23.240;2022-08-16T02:51:46;143357.66;;;17.72;100.00
9460;BME280;4768;42.664;23.240;2022-08-16T02:54:12;143160.09;;;17.83;100.00
9460;BME280;4768;42.664;23.240;2022-08-16T02:56:40;141234.22;;;17.96;100.00
9460;BME280;4768;42.664;23.240;2022-08-16T02:59:07;138961.88;;;17.99;100.00
9460;BME280;4768;42.664;23.240;2022-08-16T03:01:34;136398.41;;;18.01;100.00
9460;BME280;4768;42.664;23.240;2022-08-16T03:04:04;133637.03;;;18.16;100.00
9460;BME280;4768;42.664;23.240;2022-08-16T03:06:32;130557.41;;;18.30;100.00
9460;BME280;4768;42.664;23.240;2022-08-16T03:08:59;126649.25;;;18.38;100.00
9460;BME280;4768;42.664;23.240;2022-08-16T03:11:26;108550.66;;;18.42;100.00
9460;BME280;4768;42.664;23.240;2022-08-16T03:13:54;100266.97;;;18.44;100.00
9460;BME280;4768;42.664;23.240;2022-08-16T03:16:23;93442.66;;;18.59;100.00
9460;BME280;4768;42.664;23.240;2022-08-16T03:18:50;88107.44;;;18.62;100.00
9460;BME280;4768;42.664;23.240;2022-08-16T03:21:18;83628.41;;;18.66;100.00
9460;BME280;4768;42.664;23.240;2022-08-16T03:23:46;80893.16;;;18.78;100.00
9460;BME280;4768;42.664;23.240;2022-08-16T03:26:13;76624.94;;;18.65;100.00
9460;BME280;4768;42.664;23.240;2022-08-16T03:28:40;72063.56;;;18.53;100.00
9460;BME280;4768;42.664;23.240;2022-08-16T03:31:07;68406.94;;;18.49;100.00
9460;BME280;4768;42.664;23.240;2022-08-16T03:33:34;65940.34;;;18.48;100.00
9460;BME280;4768;42.664;23.240;2022-08-16T03:36:02;64821.81;;;18.60;100.00
9460;BME280;4768;42.664;23.240;2022-08-16T03:38:30;64998.13;;;18.75;100.00
9460;BME280;4768;42.664;23.240;2022-08-16T03:41:00;64923.00;;;18.86;100.00
9460;BME280;4768;42.664;23.240;2022-08-16T03:43:27;65997.63;;;19.00;100.00
9460;BME280;4768;42.664;23.240;2022-08-16T03:45:55;65296.66;;;19.07;100.00
9460;BME280;4768;42.664;23.240;2022-08-16T03:48:24;60326.34;;;18.86;100.00
9460;BME280;4768;42.664;23.240;2022-08-16T03:50:52;57844.44;;;18.74;100.00
9460;BME280;4768;42.664;23.240;2022-08-16T03:53:19;56430.44;;;18.71;100.00
9460;BME280;4768;42.664;23.240;2022-08-16T03:55:46;57157.91;;;18.98;100.00
9460;BME280;4768;42.664;23.240;2022-08-16T03:58:14;57508.97;;;18.95;100.00
9460;BME280;4768;42.664;23.240;2022-08-16T04:00:41;55737.13;;;18.87;100.00
9460;BME280;4768;42.664;23.240;2022-08-16T04:03:08;52558.03;;;18.80;100.00
9460;BME280;4768;42.664;23.240;2022-08-16T04:05:36;52209.84;;;18.86;100.00
9460;BME280;4768;42.664;23.240;2022-08-16T04:08:04;51500.44;;;18.79;100.00
9460;BME280;4768;42.664;23.240;2022-08-16T04:10:31;52566.25;;;18.91;100.00
9460;BME280;4768;42.664;23.240;2022-08-16T04:12:58;52565.53;;;18.90;100.00
9460;BME280;4768;42.664;23.240;2022-08-16T04:15:27;49386.94;;;18.79;100.00
9460;BME280;4768;42.664;23.240;2022-08-16T04:17:54;51151.91;;;18.85;100.00
9460;BME280;4768;42.664;23.240;2022-08-16T04:20:23;53630.63;;;19.00;100.00
9460;BME280;4768;42.664;23.240;2022-08-16T04:22:51;54690.81;;;19.02;100.00
9460;BME280;4768;42.664;23.240;2022-08-16T04:25:19;51509.50;;;18.92;100.00
9460;BME280;4768;42.664;23.240;2022-08-16T04:27:45;48328.72;;;18.76;100.00
9460;BME280;4768;42.664;23.240;2022-08-16T04:30:14;46565.09;;;18.70;100.00
9460;BME280;4768;42.664;23.240;2022-08-16T04:32:43;45517.72;;;18.83;100.00
9460;BME280;4768;42.664;23.240;2022-08-16T04:35:11;47284.22;;;18.94;100.00
9460;BME280;4768;42.664;23.240;2022-08-16T04:37:41;47995.69;;;19.05;100.00
9460;BME280;4768;42.664;23.240;2022-08-16T04:40:08;48345.91;;;19.02;100.00
9460;BME280;4768;42.664;23.240;2022-08-16T04:42:36;47640.06;;;19.00;100.00
9460;BME280;4768;42.664;23.240;2022-08-16T04:45:06;49057.56;;;19.13;100.00
9460;BME280;4768;42.664;23.240;2022-08-16T04:47:33;48706.91;;;19.16;100.00
9460;BME280;4768;42.664;23.240;2022-08-16T04:50:03;47659.81;;;19.31;100.00
9460;BME280;4768;42.664;23.240;2022-08-16T04:52:30;45907.53;;;19.44;100.00
9460;BME280;4768;42.664;23.240;2022-08-16T04:54:57;42376.03;;;19.23;100.00
9460;BME280;4768;42.664;23.240;2022-08-16T04:57:24;41326.56;;;19.33;100.00
9460;BME280;4768;42.664;23.240;2022-08-16T04:59:50;45212.84;;;19.60;100.00
9460;BME280;4768;42.664;23.240;2022-08-16T05:02:17;48053.84;;;19.95;100.00
9460;BME280;4768;42.664;23.240;2022-08-16T05:04:44;50170.47;;;19.95;100.00
9460;BME280;4768;42.664;23.240;2022-08-16T05:07:12;46662.09;;;20.25;100.00
9460;BME280;4768;42.664;23.240;2022-08-16T05:09:39;39272.69;;;20.42;100.00
9460;BME280;4768;42.664;23.240;2022-08-16T05:12:06;34698.47;;;20.39;100.00
9460;BME280;4768;42.664;23.240;2022-08-16T05:14:32;29064.72;;;19.97;100.00
9460;BME280;4768;42.664;23.240;2022-08-16T05:16:59;25560.47;;;19.99;100.00
9460;BME280;4768;42.664;23.240;2022-08-16T05:19:26;26257.41;;;19.87;100.00
9460;BME280;4768;42.664;23.240;2022-08-16T05:21:53;31859.66;;;19.67;100.00
9460;BME280;4768;42.664;23.240;2022-08-16T05:24:21;43090.69;;;19.43;100.00
9460;BME280;4768;42.664;23.240;2022-08-16T05:26:47;63333.34;;;19.10;100.00
9460;BME280;4768;42.664;23.240;2022-08-16T05:29:14;76711.72;;;19.80;100.00
9460;BME280;4768;42.664;23.240;2022-08-16T05:31:41;64608.53;;;20.64;100.00
9460;BME280;4768;42.664;23.240;2022-08-16T05:34:08;56552.38;;;21.34;100.00
9460;BME280;4768;42.664;23.240;2022-08-16T05:36:34;49578.63;;;21.64;100.00
9460;BME280;4768;42.664;23.240;2022-08-16T05:39:01;46774.69;;;22.04;100.00
9460;BME280;4768;42.664;23.240;2022-08-16T05:41:30;46792.06;;;22.32;100.00
9460;BME280;4768;42.664;23.240;2022-08-16T05:43:56;49954.56;;;21.97;100.00
9460;BME280;4768;42.664;23.240;2022-08-16T05:46:25;52065.50;;;21.78;100.00
9460;BME280;4768;42.664;23.240;2022-08-16T05:48:52;42530.59;;;22.00;100.00
9460;BME280;4768;42.664;23.240;2022-08-16T05:51:18;44998.28;;;21.90;100.00
9460;BME280;4768;42.664;23.240;2022-08-16T05:53:45;44259.25;;;21.35;100.00
9460;BME280;4768;42.664;23.240;2022-08-16T05:56:12;35100.03;;;21.53;100.00
9460;BME280;4768;42.664;23.240;2022-08-16T05:58:40;37580.97;;;21.84;100.00
9460;BME280;4768;42.664;23.240;2022-08-16T06:01:07;40043.16;;;21.70;100.00
9460;BME280;4768;42.664;23.240;2022-08-16T06:03:34;41096.47;;;21.60;100.00
9460;BME280;4768;42.664;23.240;2022-08-16T06:06:01;39337.09;;;21.69;100.00
9460;BME280;4768;42.664;23.240;2022-08-16T06:08:28;39315.28;;;21.26;100.00
9460;BME280;4768;42.664;23.240;2022-08-16T06:10:55;36869.56;;;21.71;100.00
9460;BME280;4768;42.664;23.240;2022-08-16T06:13:22;37220.44;;;21.67;100.00
9460;BME280;4768;42.664;23.240;2022-08-16T06:15:50;39672.34;;;21.35;100.00
9460;BME280;4768;42.664;23.240;2022-08-16T06:18:18;39336.09;;;21.67;100.00
9460;BME280;4768;42.664;23.240;2022-08-16T06:20:45;38289.47;;;21.90;100.00
9460;BME280;4768;42.664;23.240;2022-08-16T06:23:12;38989.34;;;21.79;100.00
9460;BME280;4768;42.664;23.240;2022-08-16T06:25:39;36491.78;;;21.16;100.00
9460;BME280;4768;42.664;23.240;2022-08-16T06:28:08;31584.41;;;21.65;100.00
9460;BME280;4768;42.664;23.240;2022-08-16T06:30:36;35451.16;;;21.51;100.00
9460;BME280;4768;42.664;23.240;2022-08-16T06:33:04;31212.69;;;21.12;100.00
9460;BME280;4768;42.664;23.240;2022-08-16T06:35:31;30879.59;;;21.62;100.00
9460;BME280;4768;42.664;23.240;2022-08-16T06:37:58;33699.94;;;21.74;100.00
9460;BME280;4768;42.664;23.240;2022-08-16T06:40:24;33698.72;;;21.71;100.00
9460;BME280;4768;42.664;23.240;2022-08-16T06:42:51;36184.47;;;22.14;100.00
9460;BME280;4768;42.664;23.240;2022-08-16T06:45:18;41844.47;;;22.37;100.00
9460;BME280;4768;42.664;23.240;2022-08-16T06:47:45;45379.56;;;22.36;100.00
9460;BME280;4768;42.664;23.240;2022-08-16T06:50:13;36905.09;;;22.47;100.00
9460;BME280;4768;42.664;23.240;2022-08-16T06:52:40;42572.56;;;22.76;100.00
9460;BME280;4768;42.664;23.240;2022-08-16T06:55:09;50412.31;;;23.48;100.00
9460;BME280;4768;42.664;23.240;2022-08-16T06:57:36;61462.50;;;23.83;100.00
9460;BME280;4768;42.664;23.240;2022-08-16T07:00:05;108122.84;;;24.01;100.00
9460;BME280;4768;42.664;23.240;2022-08-16T07:02:37;96166.53;;;23.62;100.00
9460;BME280;4768;42.664;23.240;2022-08-16T07:05:04;74566.41;;;22.87;100.00
9460;BME280;4768;42.664;23.240;2022-08-16T07:07:33;55293.44;;;22.29;100.00
9460;BME280;4768;42.664;23.240;2022-08-16T07:10:00;43955.94;;;22.21;100.00
9460;BME280;4768;42.664;23.240;2022-08-16T07:12:28;46098.09;;;22.54;100.00
9460;BME280;4768;42.664;23.240;2022-08-16T07:14:54;44376.88;;;23.36;100.00
9460;BME280;4768;42.664;23.240;2022-08-16T07:17:21;49023.72;;;23.95;100.00
9460;BME280;4768;42.664;23.240;2022-08-16T07:19:49;61846.38;;;24.15;100.00
9460;BME280;4768;42.664;23.240;2022-08-16T07:22:18;90837.44;;;24.09;100.00
9460;BME280;4768;42.664;23.240;2022-08-16T07:24:46;157764.16;;;24.70;100.00
9460;BME280;4768;42.664;23.240;2022-08-16T07:27:13;154592.06;;;25.23;100.00
9460;BME280;4768;42.664;23.240;2022-08-16T07:29:40;173715.84;;;25.26;100.00
9460;BME280;4768;42.664;23.240;2022-08-16T07:32:08;173715.84;;;25.26;100.00
9460;BME280;4768;42.664;23.240;2022-08-16T07:34:35;173710.44;;;25.24;100.00
9460;BME280;4768;42.664;23.240;2022-08-16T07:37:04;173710.44;;;25.24;100.00
9460;BME280;4768;42.664;23.240;2022-08-16T07:39:31;173702.38;;;25.21;100.00
9460;BME280;4768;42.664;23.240;2022-08-16T07:41:59;173596.16;;;24.81;100.00
9460;BME280;4768;42.664;23.240;2022-08-16T07:44:27;173644.59;;;24.99;100.00
9460;BME280;4768;42.664;23.240;2022-08-16T07:46:54;173741.38;;;25.35;100.00
9460;BME280;4768;42.664;23.240;2022-08-16T07:49:21;173830.16;;;25.68;100.00
9460;BME280;4768;42.664;23.240;2022-08-16T07:51:48;173867.84;;;25.81;100.00
9460;BME280;4768;42.664;23.240;2022-08-16T07:54:16;173888.00;;;25.89;100.00
9460;BME280;4768;42.664;23.240;2022-08-16T07:56:43;173850.31;;;25.75;100.00
9460;BME280;4768;42.664;23.240;2022-08-16T07:59:12;173986.16;;;26.25;100.00
9460;BME280;4768;42.664;23.240;2022-08-16T08:01:38;174068.28;;;26.55;100.00
9460;BME280;4768;42.664;23.240;2022-08-16T08:04:05;174143.66;;;26.83;100.00
9460;BME280;4768;42.664;23.240;2022-08-16T08:06:38;174333.47;;;27.53;100.00
9460;BME280;4768;42.664;23.240;2022-08-16T08:09:05;174291.72;;;27.37;100.00
9460;BME280;4768;42.664;23.240;2022-08-16T08:11:32;174136.91;;;26.80;100.00
9460;BME280;4768;42.664;23.240;2022-08-16T08:14:00;174310.53;;;27.44;100.00
9460;BME280;4768;42.664;23.240;2022-08-16T08:16:28;174431.75;;;27.89;100.00
9460;BME280;4768;42.664;23.240;2022-08-16T08:18:55;174272.88;;;27.30;100.00
9460;BME280;4768;42.664;23.240;2022-08-16T08:21:22;174326.72;;;27.50;100.00
9460;BME280;4768;42.664;23.240;2022-08-16T08:23:50;174314.56;;;27.46;100.00
9460;BME280;4768;42.664;23.240;2022-08-16T08:26:17;174279.59;;;27.33;100.00
9460;BME280;4768;42.664;23.240;2022-08-16T08:28:44;174131.53;;;26.78;100.00
9460;BME280;4768;42.664;23.240;2022-08-16T08:31:11;174314.56;;;27.46;100.00
9460;BME280;4768;42.664;23.240;2022-08-16T08:33:39;174379.22;;;27.70;100.00
9460;BME280;4768;42.664;23.240;2022-08-16T08:36:07;174645.91;;;28.68;100.00
9460;BME280;4768;42.664;23.240;2022-08-16T08:38:39;174602.75;;;28.52;100.00
9460;BME280;4768;42.664;23.240;2022-08-16T08:41:06;174451.94;;;27.96;100.00
9460;BME280;4768;42.664;23.240;2022-08-16T08:43:33;174275.56;;;27.31;100.00
9460;BME280;4768;42.664;23.240;2022-08-16T08:46:00;174167.91;;;26.92;100.00
9460;BME280;4768;42.664;23.240;2022-08-16T08:48:27;174310.53;;;27.44;100.00
9460;BME280;4768;42.664;23.240;2022-08-16T08:50:55;174526.03;;;28.24;100.00
9460;BME280;4768;42.664;23.240;2022-08-16T08:53:22;174526.03;;;28.24;100.00
9460;BME280;4768;42.664;23.240;2022-08-16T08:55:51;174225.75;;;27.13;100.00
9460;BME280;4768;42.664;23.240;2022-08-16T08:58:18;174279.59;;;27.33;100.00
9460;BME280;4768;42.664;23.240;2022-08-16T09:00:45;174325.34;;;27.50;100.00
9460;BME280;4768;42.664;23.240;2022-08-16T09:03:12;174209.59;;;27.07;100.00
9460;BME280;4768;42.664;23.240;2022-08-16T09:05:39;174081.72;;;26.60;100.00
9460;BME280;4768;42.664;23.240;2022-08-16T09:08:07;174042.72;;;26.46;100.00
9460;BME280;4768;42.664;23.240;2022-08-16T09:10:34;174240.56;;;27.19;100.00
9460;BME280;4768;42.664;23.240;2022-08-16T09:13:01;174403.44;;;27.78;100.00
9460;BME280;4768;42.664;23.240;2022-08-16T09:15:29;174336.19;;;27.54;100.00
9460;BME280;4768;42.664;23.240;2022-08-16T09:17:56;174190.75;;;27.00;100.00
9460;BME280;4768;42.664;23.240;2022-08-16T09:20:24;174054.81;;;26.50;100.00
9460;BME280;4768;42.664;23.240;2022-08-16T09:22:52;174046.75;;;26.47;100.00
9460;BME280;4768;42.664;23.240;2022-08-16T09:25:21;174084.44;;;26.61;100.00
9460;BME280;4768;42.664;23.240;2022-08-16T09:27:48;174248.66;;;27.22;100.00
9460;BME280;4768;42.664;23.240;2022-08-16T09:30:15;174349.63;;;27.59;100.00
9460;BME280;4768;42.664;23.240;2022-08-16T09:32:42;174384.63;;;27.72;100.00
9460;BME280;4768;42.664;23.240;2022-08-16T09:35:09;174473.47;;;28.04;100.00
9460;BME280;4768;42.664;23.240;2022-08-16T09:37:36;174438.44;;;27.91;100.00
9460;BME280;4768;42.664;23.240;2022-08-16T09:40:05;174153.03;;;26.86;100.00
9460;BME280;4768;42.664;23.240;2022-08-16T09:42:35;174188.09;;;26.99;100.00
9460;BME280;4768;42.664;23.240;2022-08-16T09:45:02;174244.59;;;27.20;100.00
9460;BME280;4768;42.664;23.240;2022-08-16T09:47:28;174352.31;;;27.60;100.00
9460;BME280;4768;42.664;23.240;2022-08-16T09:49:55;174408.84;;;27.80;100.00
9460;BME280;4768;42.664;23.240;2022-08-16T09:52:22;174423.63;;;27.86;100.00
9460;BME280;4768;42.664;23.240;2022-08-16T09:54:48;174453.28;;;27.97;100.00
9460;BME280;4768;42.664;23.240;2022-08-16T09:57:15;174482.88;;;28.08;100.00
9460;BME280;4768;42.664;23.240;2022-08-16T09:59:43;174519.28;;;28.21;100.00
9460;BME280;4768;42.664;23.240;2022-08-16T10:02:10;174425.00;;;27.86;100.00
9460;BME280;4768;42.664;23.240;2022-08-16T10:04:37;174434.41;;;27.90;100.00
9460;BME280;4768;42.664;23.240;2022-08-16T10:07:04;174431.75;;;27.89;100.00
9460;BME280;4768;42.664;23.240;2022-08-16T10:09:30;174352.31;;;27.60;100.00
9460;BME280;4768;42.664;23.240;2022-08-16T10:11:57;174406.16;;;27.79;100.00
9460;BME280;4768;42.664;23.240;2022-08-16T10:14:41;174484.25;;;28.08;100.00
9460;BME280;4768;42.664;23.240;2022-08-16T10:17:09;174526.03;;;28.24;100.00
9460;BME280;4768;42.664;23.240;2022-08-16T10:19:37;174546.22;;;28.31;100.00
9460;BME280;4768;42.664;23.240;2022-08-16T10:22:03;174583.91;;;28.45;100.00
9460;BME280;4768;42.664;23.240;2022-08-16T10:24:31;174492.38;;;28.11;100.00
9460;BME280;4768;42.664;23.240;2022-08-16T10:26:58;174437.13;;;27.91;100.00
9460;BME280;4768;42.664;23.240;2022-08-16T10:29:25;174485.59;;;28.09;100.00
9460;BME280;4768;42.664;23.240;2022-08-16T10:31:51;174585.28;;;28.45;100.00
9460;BME280;4768;42.664;23.240;2022-08-16T10:34:20;174703.81;;;28.89;100.00
9460;BME280;4768;42.664;23.240;2022-08-16T10:36:46;174741.56;;;29.03;100.00
9460;BME280;4768;42.664;23.240;2022-08-16T10:39:13;174581.25;;;28.44;100.00
9460;BME280;4768;42.664;23.240;2022-08-16T10:41:40;174649.97;;;28.69;100.00
9460;BME280;4768;42.664;23.240;2022-08-16T10:44:07;174482.88;;;28.08;100.00
9460;BME280;4768;42.664;23.240;2022-08-16T10:46:34;174376.56;;;27.69;100.00
9460;BME280;4768;42.664;23.240;2022-08-16T10:49:01;174392.72;;;27.75;100.00
9460;BME280;4768;42.664;23.240;2022-08-16T10:51:29;174504.50;;;28.16;100.00
9460;BME280;4768;42.664;23.240;2022-08-16T10:53:56;174317.28;;;27.47;100.00
9460;BME280;4768;42.664;23.240;2022-08-16T10:56:24;174111.34;;;26.71;100.00
9460;BME280;4768;42.664;23.240;2022-08-16T10:58:51;174310.53;;;27.44;100.00
9460;BME280;4768;42.664;23.240;2022-08-16T11:01:18;174171.94;;;26.93;100.00
9460;BME280;4768;42.664;23.240;2022-08-16T11:03:45;174216.34;;;27.10;100.00
9460;BME280;4768;42.664;23.240;2022-08-16T11:06:12;174303.84;;;27.42;100.00
9460;BME280;4768;42.664;23.240;2022-08-16T11:08:40;174314.56;;;27.46;100.00
9460;BME280;4768;42.664;23.240;2022-08-16T11:11:08;174328.09;;;27.51;100.00
9460;BME280;4768;42.664;23.240;2022-08-16T11:13:36;174526.03;;;28.24;100.00
9460;BME280;4768;42.664;23.240;2022-08-16T11:16:04;174671.47;;;28.77;100.00
9460;BME280;4768;42.664;23.240;2022-08-16T11:18:31;174658.03;;;28.72;100.00
9460;BME280;4768;42.664;23.240;2022-08-16T11:20:58;174591.97;;;28.48;100.00
9460;BME280;4768;42.664;23.240;2022-08-16T11:23:26;174563.69;;;28.37;100.00
9460;BME280;4768;42.664;23.240;2022-08-16T11:25:55;174524.69;;;28.23;100.00
9460;BME280;4768;42.664;23.240;2022-08-16T11:28:22;174505.81;;;28.16;100.00
9460;BME280;4768;42.664;23.240;2022-08-16T11:30:49;174500.47;;;28.14;100.00
9460;BME280;4768;42.664;23.240;2022-08-16T11:33:16;174462.69;;;28.00;100.00
9460;BME280;4768;42.664;23.240;2022-08-16T11:35:43;174517.94;;;28.21;100.00
9460;BME280;4768;42.664;23.240;2022-08-16T11:38:12;174503.13;;;28.15;100.00
9460;BME280;4768;42.664;23.240;2022-08-16T11:40:42;174544.88;;;28.30;100.00
9460;BME280;4768;42.664;23.240;2022-08-16T11:43:14;174214.97;;;27.09;100.00
9460;BME280;4768;42.664;23.240;2022-08-16T11:45:41;174049.44;;;26.48;100.00
9460;BME280;4768;42.664;23.240;2022-08-16T11:48:07;174155.75;;;26.87;100.00
9460;BME280;4768;42.664;23.240;2022-08-16T11:50:34;174287.69;;;27.36;100.00
9460;BME280;4768;42.664;23.240;2022-08-16T11:53:04;174303.84;;;27.42;100.00
9460;BME280;4768;42.664;23.240;2022-08-16T11:55:32;174387.28;;;27.73;100.00
9460;BME280;4768;42.664;23.240;2022-08-16T11:58:00;174359.03;;;27.62;100.00
9460;BME280;4768;42.664;23.240;2022-08-16T12:00:29;174513.91;;;28.19;100.00
9460;BME280;4768;42.664;23.240;2022-08-16T12:02:57;174527.34;;;28.24;100.00
9460;BME280;4768;42.664;23.240;2022-08-16T12:05:24;174476.19;;;28.05;100.00
9460;BME280;4768;42.664;23.240;2022-08-16T12:07:52;174531.38;;;28.26;100.00
9460;BME280;4768;42.664;23.240;2022-08-16T12:10:22;174683.59;;;28.81;100.00
9460;BME280;4768;42.664;23.240;2022-08-16T12:12:49;174612.22;;;28.55;100.00
9460;BME280;4768;42.664;23.240;2022-08-16T12:15:18;174652.66;;;28.70;100.00
9460;BME280;4768;42.664;23.240;2022-08-16T12:17:46;174575.81;;;28.42;100.00
9460;BME280;4768;42.664;23.240;2022-08-16T12:20:16;174484.25;;;28.08;100.00
9460;BME280;4768;42.664;23.240;2022-08-16T12:22:43;174558.34;;;28.35;100.00
9460;BME280;4768;42.664;23.240;2022-08-16T12:25:13;174575.81;;;28.42;100.00
9460;BME280;4768;42.664;23.240;2022-08-16T12:27:40;174492.38;;;28.11;100.00
9460;BME280;4768;42.664;23.240;2022-08-16T12:30:10;174449.25;;;27.95;100.00
9460;BME280;4768;42.664;23.240;2022-08-16T12:32:38;174557.00;;;28.35;100.00
9460;BME280;4768;42.664;23.240;2022-08-16T12:35:09;174620.31;;;28.58;100.00
9460;BME280;4768;42.664;23.240;2022-08-16T12:37:37;174752.28;;;29.07;100.00
9460;BME280;4768;42.664;23.240;2022-08-16T12:40:06;174866.88;;;29.49;100.00
9460;BME280;4768;42.664;23.240;2022-08-16T12:42:33;174670.16;;;28.77;100.00
9460;BME280;4768;42.664;23.240;2022-08-16T12:45:00;174737.50;;;29.01;100.00
9460;BME280;4768;42.664;23.240;2022-08-16T12:47:27;174777.91;;;29.16;100.00
9460;BME280;4768;42.664;23.240;2022-08-16T12:50:13;174784.66;;;29.19;100.00
9460;BME280;4768;42.664;23.240;2022-08-16T12:52:39;174788.72;;;29.20;100.00
9460;BME280;4768;42.664;23.240;2022-08-16T12:55:06;174845.31;;;29.41;100.00
9460;BME280;4768;42.664;23.240;2022-08-16T12:57:35;174750.97;;;29.06;100.00